Terminal Aerodrome Forecast
Issued by NWS

Current Version | Previous Version | Graphics & Text | Print | Product List | Glossary On
Versions: 1 2 3 4 5 6 7 8 9 10 11 12 13 14 15 16 17 18 19 20
000
FTUS41 KILN 261100
TAFLCK
TAF
KLCK 261130Z 2612/2712 34007KT P6SM BKN025
     FM261500 04003KT P6SM SCT025 SCT120
     FM270000 34004KT P6SM BKN015=

USA.gov is the U.S. government's official web portal to all federal, state and local government web resources and services.